sensor_id;sensor_type;location;lat;lon;timestamp;pressure;altitude;pressure_sealevel;temperature;humidity
20077;BME280;12348;42.710;23.378;2022-12-15T00:00:00;94304.88;;;1.66;100.00
20077;BME280;12348;42.710;23.378;2022-12-15T00:02:44;94320.38;;;1.47;100.00
20077;BME280;12348;42.710;23.378;2022-12-15T00:05:28;94306.31;;;1.47;100.00
20077;BME280;12348;42.710;23.378;2022-12-15T00:08:12;94316.13;;;1.46;100.00
20077;BME280;12348;42.710;23.378;2022-12-15T00:10:56;94302.31;;;1.44;100.00
20077;BME280;12348;42.710;23.378;2022-12-15T00:13:42;94299.63;;;1.39;100.00
20077;BME280;12348;42.710;23.378;2022-12-15T00:16:27;94329.34;;;1.41;100.00
20077;BME280;12348;42.710;23.378;2022-12-15T00:19:11;94333.88;;;1.45;100.00
20077;BME280;12348;42.710;23.378;2022-12-15T00:21:55;94347.13;;;1.45;100.00
20077;BME280;12348;42.710;23.378;2022-12-15T00:24:39;94362.22;;;1.40;100.00
20077;BME280;12348;42.710;23.378;2022-12-15T00:27:23;94378.22;;;1.50;100.00
20077;BME280;12348;42.710;23.378;2022-12-15T00:30:10;94379.56;;;1.53;100.00
20077;BME280;12348;42.710;23.378;2022-12-15T00:32:54;94383.16;;;1.41;100.00
20077;BME280;12348;42.710;23.378;2022-12-15T00:35:38;94384.19;;;1.35;100.00
20077;BME280;12348;42.710;23.378;2022-12-15T00:38:22;94359.34;;;1.19;100.00
20077;BME280;12348;42.710;23.378;2022-12-15T00:41:06;94349.47;;;1.10;100.00
20077;BME280;12348;42.710;23.378;2022-12-15T00:43:34;94353.84;;;0.99;100.00
20077;BME280;12348;42.710;23.378;2022-12-15T00:46:03;94358.09;;;1.00;100.00
20077;BME280;12348;42.710;23.378;2022-12-15T00:48:47;94346.97;;;0.98;100.00
20077;BME280;12348;42.710;23.378;2022-12-15T00:51:15;94332.94;;;1.03;100.00
20077;BME280;12348;42.710;23.378;2022-12-15T00:53:41;94325.25;;;1.28;100.00
20077;BME280;12348;42.710;23.378;2022-12-15T00:56:25;94316.41;;;1.17;100.00
20077;BME280;12348;42.710;23.378;2022-12-15T00:59:10;94307.84;;;1.10;100.00
20077;BME280;12348;42.710;23.378;2022-12-15T01:04:25;94308.34;;;1.07;100.00
20077;BME280;12348;42.710;23.378;2022-12-15T01:07:09;94307.81;;;1.05;100.00
20077;BME280;12348;42.710;23.378;2022-12-15T01:09:53;94307.81;;;1.05;100.00
20077;BME280;12348;42.710;23.378;2022-12-15T01:12:37;94307.75;;;1.00;100.00
20077;BME280;12348;42.710;23.378;2022-12-15T01:15:23;94306.41;;;0.98;100.00
20077;BME280;12348;42.710;23.378;2022-12-15T01:18:07;94305.59;;;0.97;100.00
20077;BME280;12348;42.710;23.378;2022-12-15T01:20:57;94304.59;;;1.03;100.00
20077;BME280;12348;42.710;23.378;2022-12-15T01:23:24;94301.75;;;1.10;100.00
20077;BME280;12348;42.710;23.378;2022-12-15T01:25:51;94294.88;;;1.14;100.00
20077;BME280;12348;42.710;23.378;2022-12-15T01:28:20;94294.09;;;1.13;100.00
20077;BME280;12348;42.710;23.378;2022-12-15T01:30:47;94298.59;;;1.13;100.00
20077;BME280;12348;42.710;23.378;2022-12-15T01:33:15;94298.34;;;1.14;100.00
20077;BME280;12348;42.710;23.378;2022-12-15T01:35:42;94297.53;;;1.14;100.00
20077;BME280;12348;42.710;23.378;2022-12-15T01:38:11;94310.00;;;1.13;100.00
20077;BME280;12348;42.710;23.378;2022-12-15T01:40:38;94307.03;;;1.10;100.00
20077;BME280;12348;42.710;23.378;2022-12-15T01:43:11;94301.19;;;1.08;100.00
20077;BME280;12348;42.710;23.378;2022-12-15T01:45:48;94301.63;;;1.27;100.00
20077;BME280;12348;42.710;23.378;2022-12-15T01:48:19;94285.47;;;1.28;100.00
20077;BME280;12348;42.710;23.378;2022-12-15T01:50:57;94287.84;;;1.25;100.00
20077;BME280;12348;42.710;23.378;2022-12-15T01:53:27;94289.91;;;1.23;100.00
20077;BME280;12348;42.710;23.378;2022-12-15T01:55:58;94285.41;;;1.23;100.00
20077;BME280;12348;42.710;23.378;2022-12-15T01:58:25;94279.03;;;1.19;100.00
20077;BME280;12348;42.710;23.378;2022-12-15T02:00:52;94266.53;;;1.14;100.00
20077;BME280;12348;42.710;23.378;2022-12-15T02:03:19;94252.22;;;1.15;100.00
20077;BME280;12348;42.710;23.378;2022-12-15T02:05:46;94238.44;;;1.13;100.00
20077;BME280;12348;42.710;23.378;2022-12-15T02:08:13;94221.97;;;1.11;100.00
20077;BME280;12348;42.710;23.378;2022-12-15T02:10:51;94220.84;;;1.02;100.00
20077;BME280;12348;42.710;23.378;2022-12-15T02:13:27;94241.84;;;1.09;100.00
20077;BME280;12348;42.710;23.378;2022-12-15T02:16:01;94258.59;;;1.19;100.00
20077;BME280;12348;42.710;23.378;2022-12-15T02:18:35;94231.59;;;1.23;100.00
20077;BME280;12348;42.710;23.378;2022-12-15T02:21:08;94232.19;;;1.30;100.00
20077;BME280;12348;42.710;23.378;2022-12-15T02:24:16;94233.56;;;1.37;100.00
20077;BME280;12348;42.710;23.378;2022-12-15T02:30:24;94192.16;;;1.31;100.00
20077;BME280;12348;42.710;23.378;2022-12-15T02:33:01;94195.03;;;1.25;100.00
20077;BME280;12348;42.710;23.378;2022-12-15T02:35:35;94205.38;;;1.26;100.00
20077;BME280;12348;42.710;23.378;2022-12-15T02:38:07;94206.69;;;1.24;100.00
20077;BME280;12348;42.710;23.378;2022-12-15T02:40:34;94196.63;;;1.26;100.00
20077;BME280;12348;42.710;23.378;2022-12-15T02:43:03;94207.28;;;1.31;100.00
20077;BME280;12348;42.710;23.378;2022-12-15T02:45:39;94200.44;;;1.40;100.00
20077;BME280;12348;42.710;23.378;2022-12-15T02:48:18;94203.69;;;1.52;100.00
20077;BME280;12348;42.710;23.378;2022-12-15T02:51:01;94220.47;;;1.58;100.00
20077;BME280;12348;42.710;23.378;2022-12-15T02:53:57;94236.59;;;1.56;100.00
20077;BME280;12348;42.710;23.378;2022-12-15T02:56:31;94255.75;;;1.63;100.00
20077;BME280;12348;42.710;23.378;2022-12-15T02:59:05;94235.03;;;1.60;100.00
20077;BME280;12348;42.710;23.378;2022-12-15T03:01:42;94236.69;;;1.66;100.00
20077;BME280;12348;42.710;23.378;2022-12-15T03:04:11;94237.78;;;1.70;100.00
20077;BME280;12348;42.710;23.378;2022-12-15T03:06:38;94242.94;;;1.87;100.00
20077;BME280;12348;42.710;23.378;2022-12-15T03:09:05;94251.09;;;1.81;100.00
20077;BME280;12348;42.710;23.378;2022-12-15T03:11:32;94251.63;;;1.83;100.00
20077;BME280;12348;42.710;23.378;2022-12-15T03:13:59;94246.88;;;1.80;100.00
20077;BME280;12348;42.710;23.378;2022-12-15T03:16:26;94234.59;;;1.74;100.00
20077;BME280;12348;42.710;23.378;2022-12-15T03:18:54;94231.88;;;1.63;100.00
20077;BME280;12348;42.710;23.378;2022-12-15T03:21:21;94244.63;;;1.61;100.00
20077;BME280;12348;42.710;23.378;2022-12-15T03:23:47;94241.69;;;1.63;100.00
20077;BME280;12348;42.710;23.378;2022-12-15T03:26:14;94238.53;;;1.61;100.00
20077;BME280;12348;42.710;23.378;2022-12-15T03:28:41;94220.19;;;1.59;100.00
20077;BME280;12348;42.710;23.378;2022-12-15T03:31:08;94240.31;;;1.55;100.00
20077;BME280;12348;42.710;23.378;2022-12-15T03:33:35;94231.84;;;1.53;100.00
20077;BME280;12348;42.710;23.378;2022-12-15T03:36:03;94236.03;;;1.49;100.00
20077;BME280;12348;42.710;23.378;2022-12-15T03:38:30;94222.78;;;1.49;100.00
20077;BME280;12348;42.710;23.378;2022-12-15T03:40:57;94239.25;;;1.51;100.00
20077;BME280;12348;42.710;23.378;2022-12-15T03:43:24;94231.56;;;1.55;100.00
20077;BME280;12348;42.710;23.378;2022-12-15T03:45:50;94227.56;;;1.52;100.00
20077;BME280;12348;42.710;23.378;2022-12-15T03:48:17;94244.56;;;1.56;100.00
20077;BME280;12348;42.710;23.378;2022-12-15T03:50:46;94235.53;;;1.52;100.00
20077;BME280;12348;42.710;23.378;2022-12-15T03:53:15;94255.97;;;1.57;100.00
20077;BME280;12348;42.710;23.378;2022-12-15T03:55:42;94257.31;;;1.59;100.00
20077;BME280;12348;42.710;23.378;2022-12-15T03:58:09;94267.16;;;1.64;100.00
20077;BME280;12348;42.710;23.378;2022-12-15T04:00:35;94268.84;;;1.75;100.00
20077;BME280;12348;42.710;23.378;2022-12-15T04:03:03;94259.56;;;1.73;100.00
20077;BME280;12348;42.710;23.378;2022-12-15T04:05:32;94276.28;;;1.73;100.00
20077;BME280;12348;42.710;23.378;2022-12-15T04:07:59;94268.81;;;1.70;100.00
20077;BME280;12348;42.710;23.378;2022-12-15T04:10:30;94282.94;;;1.76;100.00
20077;BME280;12348;42.710;23.378;2022-12-15T04:12:58;94270.13;;;1.67;100.00
20077;BME280;12348;42.710;23.378;2022-12-15T04:15:25;94282.84;;;1.65;100.00
20077;BME280;12348;42.710;23.378;2022-12-15T04:17:52;94306.22;;;1.68;100.00
20077;BME280;12348;42.710;23.378;2022-12-15T04:20:20;94295.44;;;1.80;100.00
20077;BME280;12348;42.710;23.378;2022-12-15T04:22:47;94292.50;;;1.82;100.00
20077;BME280;12348;42.710;23.378;2022-12-15T04:25:16;94302.06;;;1.83;100.00
20077;BME280;12348;42.710;23.378;2022-12-15T04:28:03;94306.03;;;1.80;100.00
20077;BME280;12348;42.710;23.378;2022-12-15T04:30:50;94314.28;;;1.84;100.00
20077;BME280;12348;42.710;23.378;2022-12-15T04:33:36;94285.03;;;1.79;100.00
20077;BME280;12348;42.710;23.378;2022-12-15T04:36:22;94291.69;;;1.76;100.00
20077;BME280;12348;42.710;23.378;2022-12-15T04:39:07;94288.47;;;1.74;100.00
20077;BME280;12348;42.710;23.378;2022-12-15T04:41:53;94265.94;;;1.77;100.00
20077;BME280;12348;42.710;23.378;2022-12-15T04:44:41;94275.50;;;1.78;100.00
20077;BME280;12348;42.710;23.378;2022-12-15T04:47:27;94286.63;;;1.75;100.00
20077;BME280;12348;42.710;23.378;2022-12-15T04:50:11;94290.84;;;1.70;100.00
20077;BME280;12348;42.710;23.378;2022-12-15T04:53:07;94287.69;;;1.74;100.00
20077;BME280;12348;42.710;23.378;2022-12-15T04:55:51;94290.84;;;1.70;100.00
20077;BME280;12348;42.710;23.378;2022-12-15T04:58:36;94295.84;;;1.67;100.00
20077;BME280;12348;42.710;23.378;2022-12-15T05:01:21;94309.63;;;1.64;100.00
20077;BME280;12348;42.710;23.378;2022-12-15T05:04:05;94312.81;;;1.61;100.00
20077;BME280;12348;42.710;23.378;2022-12-15T05:06:49;94329.75;;;1.60;100.00
20077;BME280;12348;42.710;23.378;2022-12-15T05:09:33;94333.25;;;1.65;100.00
20077;BME280;12348;42.710;23.378;2022-12-15T05:12:17;94329.53;;;1.66;100.00
20077;BME280;12348;42.710;23.378;2022-12-15T05:15:02;94332.69;;;1.63;100.00
20077;BME280;12348;42.710;23.378;2022-12-15T05:17:48;94333.09;;;1.77;100.00
20077;BME280;12348;42.710;23.378;2022-12-15T05:20:32;94349.81;;;1.78;100.00
20077;BME280;12348;42.710;23.378;2022-12-15T05:23:16;94365.22;;;1.81;100.00
20077;BME280;12348;42.710;23.378;2022-12-15T05:26:00;94379.31;;;1.86;100.00
20077;BME280;12348;42.710;23.378;2022-12-15T05:28:45;94389.72;;;1.93;100.00
20077;BME280;12348;42.710;23.378;2022-12-15T05:31:29;94390.28;;;1.95;100.00
20077;BME280;12348;42.710;23.378;2022-12-15T05:34:19;94379.69;;;2.00;100.00
20077;BME280;12348;42.710;23.378;2022-12-15T05:36:46;94401.78;;;2.06;100.00
20077;BME280;12348;42.710;23.378;2022-12-15T05:39:13;94406.63;;;2.14;100.00
20077;BME280;12348;42.710;23.378;2022-12-15T05:41:40;94403.50;;;2.22;100.00
20077;BME280;12348;42.710;23.378;2022-12-15T05:44:08;94406.03;;;2.44;100.00
20077;BME280;12348;42.710;23.378;2022-12-15T05:46:35;94414.09;;;2.59;100.00
20077;BME280;12348;42.710;23.378;2022-12-15T05:49:04;94434.03;;;2.62;100.00
20077;BME280;12348;42.710;23.378;2022-12-15T05:51:35;94429.53;;;2.62;100.00
20077;BME280;12348;42.710;23.378;2022-12-15T05:54:02;94434.78;;;2.57;100.00
20077;BME280;12348;42.710;23.378;2022-12-15T05:56:29;94452.88;;;2.60;100.00
20077;BME280;12348;42.710;23.378;2022-12-15T05:58:56;94465.06;;;2.51;100.00
20077;BME280;12348;42.710;23.378;2022-12-15T06:01:24;94466.34;;;2.43;100.00
20077;BME280;12348;42.710;23.378;2022-12-15T06:03:51;94467.63;;;2.41;100.00
20077;BME280;12348;42.710;23.378;2022-12-15T06:06:18;94483.84;;;2.39;100.00
20077;BME280;12348;42.710;23.378;2022-12-15T06:08:47;94484.81;;;2.65;100.00
20077;BME280;12348;42.710;23.378;2022-12-15T06:11:16;94491.16;;;2.59;100.00
20077;BME280;12348;42.710;23.378;2022-12-15T06:13:43;94483.31;;;2.42;100.00
20077;BME280;12348;42.710;23.378;2022-12-15T06:16:13;94480.72;;;2.48;100.00
20077;BME280;12348;42.710;23.378;2022-12-15T06:18:42;94491.84;;;2.45;100.00
20077;BME280;12348;42.710;23.378;2022-12-15T06:21:11;94495.63;;;2.54;100.00
20077;BME280;12348;42.710;23.378;2022-12-15T06:23:39;94495.63;;;2.54;100.00
20077;BME280;12348;42.710;23.378;2022-12-15T06:26:12;94499.59;;;2.51;100.00
20077;BME280;12348;42.710;23.378;2022-12-15T06:28:40;94509.25;;;2.62;100.00
20077;BME280;12348;42.710;23.378;2022-12-15T06:31:08;94509.59;;;2.76;100.00
20077;BME280;12348;42.710;23.378;2022-12-15T06:33:36;94512.59;;;2.85;100.00
20077;BME280;12348;42.710;23.378;2022-12-15T06:36:04;94507.34;;;2.95;100.00
20077;BME280;12348;42.710;23.378;2022-12-15T06:38:31;94518.78;;;3.01;100.00
20077;BME280;12348;42.710;23.378;2022-12-15T06:41:00;94522.81;;;3.08;100.00
20077;BME280;12348;42.710;23.378;2022-12-15T06:43:29;94527.06;;;3.09;100.00
20077;BME280;12348;42.710;23.378;2022-12-15T06:45:57;94530.56;;;3.15;100.00
20077;BME280;12348;42.710;23.378;2022-12-15T06:48:24;94529.50;;;3.16;100.00
20077;BME280;12348;42.710;23.378;2022-12-15T06:50:52;94532.19;;;3.21;100.00
20077;BME280;12348;42.710;23.378;2022-12-15T06:53:20;94523.50;;;3.36;100.00
20077;BME280;12348;42.710;23.378;2022-12-15T06:55:47;94532.31;;;3.42;100.00
20077;BME280;12348;42.710;23.378;2022-12-15T06:58:15;94534.97;;;3.42;100.00
20077;BME280;12348;42.710;23.378;2022-12-15T07:00:44;94538.53;;;3.62;100.00
20077;BME280;12348;42.710;23.378;2022-12-15T07:03:13;94541.25;;;3.78;100.00
20077;BME280;12348;42.710;23.378;2022-12-15T07:05:41;94541.25;;;3.83;100.00
20077;BME280;12348;42.710;23.378;2022-12-15T07:08:09;94548.72;;;3.86;100.00
20077;BME280;12348;42.710;23.378;2022-12-15T07:10:37;94554.84;;;3.86;100.00
20077;BME280;12348;42.710;23.378;2022-12-15T07:13:05;94558.06;;;3.99;100.00
20077;BME280;12348;42.710;23.378;2022-12-15T07:15:32;94559.41;;;4.06;100.00
20077;BME280;12348;42.710;23.378;2022-12-15T07:18:01;94566.13;;;4.24;100.00
20077;BME280;12348;42.710;23.378;2022-12-15T07:20:28;94573.63;;;4.43;100.00
20077;BME280;12348;42.710;23.378;2022-12-15T07:22:54;94567.25;;;4.49;100.00
20077;BME280;12348;42.710;23.378;2022-12-15T07:25:21;94571.53;;;4.75;100.00
20077;BME280;12348;42.710;23.378;2022-12-15T07:27:48;94578.66;;;5.46;100.00
20077;BME280;12348;42.710;23.378;2022-12-15T07:30:15;94589.81;;;5.58;100.00
20077;BME280;12348;42.710;23.378;2022-12-15T07:32:43;94583.44;;;5.54;100.00
20077;BME280;12348;42.710;23.378;2022-12-15T07:35:13;94593.28;;;5.64;100.00
20077;BME280;12348;42.710;23.378;2022-12-15T07:37:40;94595.91;;;5.79;100.00
20077;BME280;12348;42.710;23.378;2022-12-15T07:40:08;94613.84;;;5.58;100.00
20077;BME280;12348;42.710;23.378;2022-12-15T07:42:35;94606.19;;;5.31;100.00
20077;BME280;12348;42.710;23.378;2022-12-15T07:45:02;94611.25;;;5.28;100.00
20077;BME280;12348;42.710;23.378;2022-12-15T07:47:30;94615.81;;;5.12;100.00
20077;BME280;12348;42.710;23.378;2022-12-15T07:49:56;94601.94;;;5.05;100.00
20077;BME280;12348;42.710;23.378;2022-12-15T07:52:30;94614.72;;;4.93;100.00
20077;BME280;12348;42.710;23.378;2022-12-15T07:55:01;94614.19;;;4.80;100.00
20077;BME280;12348;42.710;23.378;2022-12-15T07:57:29;94621.41;;;4.90;100.00
20077;BME280;12348;42.710;23.378;2022-12-15T07:59:57;94625.66;;;4.96;100.00
20077;BME280;12348;42.710;23.378;2022-12-15T08:02:23;94632.84;;;4.96;100.00
20077;BME280;12348;42.710;23.378;2022-12-15T08:04:50;94632.59;;;4.92;100.00
20077;BME280;12348;42.710;23.378;2022-12-15T08:07:17;94630.47;;;5.09;100.00
20077;BME280;12348;42.710;23.378;2022-12-15T08:09:45;94634.47;;;5.07;100.00
20077;BME280;12348;42.710;23.378;2022-12-15T08:12:12;94641.94;;;5.30;100.00
20077;BME280;12348;42.710;23.378;2022-12-15T08:14:41;94634.72;;;5.26;100.00
20077;BME280;12348;42.710;23.378;2022-12-15T08:17:08;94638.75;;;5.08;100.00
20077;BME280;12348;42.710;23.378;2022-12-15T08:19:35;94633.94;;;4.95;100.00
20077;BME280;12348;42.710;23.378;2022-12-15T08:22:02;94637.38;;;4.80;100.00
20077;BME280;12348;42.710;23.378;2022-12-15T08:24:28;94653.38;;;4.65;100.00
20077;BME280;12348;42.710;23.378;2022-12-15T08:26:57;94653.38;;;4.70;100.00
20077;BME280;12348;42.710;23.378;2022-12-15T08:29:24;94664.31;;;4.68;100.00
20077;BME280;12348;42.710;23.378;2022-12-15T08:31:51;94671.25;;;4.64;100.00
20077;BME280;12348;42.710;23.378;2022-12-15T08:34:18;94671.56;;;4.93;100.00
20077;BME280;12348;42.710;23.378;2022-12-15T08:36:45;94673.44;;;5.13;100.00
20077;BME280;12348;42.710;23.378;2022-12-15T08:39:11;94680.66;;;5.13;100.00
20077;BME280;12348;42.710;23.378;2022-12-15T08:41:38;94675.03;;;5.24;100.00
20077;BME280;12348;42.710;23.378;2022-12-15T08:44:07;94674.50;;;5.17;100.00
20077;BME280;12348;42.710;23.378;2022-12-15T08:46:37;94670.22;;;5.26;100.00
20077;BME280;12348;42.710;23.378;2022-12-15T08:49:05;94682.53;;;5.27;100.00
20077;BME280;12348;42.710;23.378;2022-12-15T08:51:33;94682.78;;;5.21;100.00
20077;BME280;12348;42.710;23.378;2022-12-15T08:54:00;94683.31;;;5.23;100.00
20077;BME280;12348;42.710;23.378;2022-12-15T08:56:27;94693.44;;;5.36;100.00
20077;BME280;12348;42.710;23.378;2022-12-15T08:58:56;94680.09;;;5.51;100.00
20077;BME280;12348;42.710;23.378;2022-12-15T09:01:26;94675.56;;;5.37;100.00
20077;BME280;12348;42.710;23.378;2022-12-15T09:03:54;94681.69;;;5.47;100.00
20077;BME280;12348;42.710;23.378;2022-12-15T09:06:23;94677.41;;;5.67;100.00
20077;BME280;12348;42.710;23.378;2022-12-15T09:08:53;94677.44;;;5.56;100.00
20077;BME280;12348;42.710;23.378;2022-12-15T09:11:20;94672.06;;;5.72;100.00
20077;BME280;12348;42.710;23.378;2022-12-15T09:13:47;94677.63;;;5.91;100.00
20077;BME280;12348;42.710;23.378;2022-12-15T09:16:16;94675.50;;;5.93;100.00
20077;BME280;12348;42.710;23.378;2022-12-15T09:18:46;94672.84;;;5.93;100.00
20077;BME280;12348;42.710;23.378;2022-12-15T09:21:13;94667.25;;;5.74;100.00
20077;BME280;12348;42.710;23.378;2022-12-15T09:23:41;94680.59;;;5.94;100.00
20077;BME280;12348;42.710;23.378;2022-12-15T09:26:10;94678.97;;;5.98;100.00
20077;BME280;12348;42.710;23.378;2022-12-15T09:28:38;94691.81;;;6.01;100.00
20077;BME280;12348;42.710;23.378;2022-12-15T09:31:07;94679.22;;;6.07;100.00
20077;BME280;12348;42.710;23.378;2022-12-15T09:33:35;94676.53;;;6.07;100.00
20077;BME280;12348;42.710;23.378;2022-12-15T09:36:04;94682.88;;;6.31;100.00
20077;BME280;12348;42.710;23.378;2022-12-15T09:38:32;94681.84;;;6.27;100.00
20077;BME280;12348;42.710;23.378;2022-12-15T09:41:07;94689.84;;;6.27;100.00
20077;BME280;12348;42.710;23.378;2022-12-15T09:43:36;94697.53;;;6.44;100.00
20077;BME280;12348;42.710;23.378;2022-12-15T09:46:13;94679.22;;;6.67;100.00
20077;BME280;12348;42.710;23.378;2022-12-15T09:48:44;94688.75;;;6.83;100.00
20077;BME280;12348;42.710;23.378;2022-12-15T09:51:16;94678.56;;;6.90;100.00
20077;BME280;12348;42.710;23.378;2022-12-15T09:53:44;94683.09;;;6.90;100.00
20077;BME280;12348;42.710;23.378;2022-12-15T09:56:17;94686.91;;;6.78;100.00
20077;BME280;12348;42.710;23.378;2022-12-15T09:58:51;94699.56;;;6.68;100.00
20077;BME280;12348;42.710;23.378;2022-12-15T10:01:24;94694.22;;;6.63;100.00
20077;BME280;12348;42.710;23.378;2022-12-15T10:03:55;94695.81;;;5.83;100.00
20077;BME280;12348;42.710;23.378;2022-12-15T10:06:32;94688.78;;;6.23;100.00
20077;BME280;12348;42.710;23.378;2022-12-15T10:09:11;94680.88;;;5.72;100.00
20077;BME280;12348;42.710;23.378;2022-12-15T10:11:45;94684.91;;;5.49;100.00
20077;BME280;12348;42.710;23.378;2022-12-15T10:14:22;94681.97;;;5.20;100.00
20077;BME280;12348;42.710;23.378;2022-12-15T10:16:59;94676.88;;;4.98;100.00
20077;BME280;12348;42.710;23.378;2022-12-15T10:19:36;94676.91;;;5.24;100.00
20077;BME280;12348;42.710;23.378;2022-12-15T10:22:10;94673.69;;;5.32;100.00
20077;BME280;12348;42.710;23.378;2022-12-15T10:24:37;94682.78;;;5.56;100.00
20077;BME280;12348;42.710;23.378;2022-12-15T10:27:19;94685.91;;;6.10;100.00
20077;BME280;12348;42.710;23.378;2022-12-15T10:29:55;94690.44;;;6.09;100.00
20077;BME280;12348;42.710;23.378;2022-12-15T10:32:30;94704.22;;;6.42;100.00
20077;BME280;12348;42.710;23.378;2022-12-15T10:35:00;94700.63;;;6.67;100.00
20077;BME280;12348;42.710;23.378;2022-12-15T10:37:28;94695.09;;;7.02;100.00
20077;BME280;12348;42.710;23.378;2022-12-15T10:39:55;94695.34;;;7.06;100.00
20077;BME280;12348;42.710;23.378;2022-12-15T10:42:23;94700.28;;;6.84;100.00
20077;BME280;12348;42.710;23.378;2022-12-15T10:44:53;94699.56;;;6.68;100.00
20077;BME280;12348;42.710;23.378;2022-12-15T10:47:22;94693.25;;;6.93;100.00
20077;BME280;12348;42.710;23.378;2022-12-15T10:49:50;94696.38;;;7.10;100.00
20077;BME280;12348;42.710;23.378;2022-12-15T10:52:24;94692.06;;;7.09;100.00
20077;BME280;12348;42.710;23.378;2022-12-15T10:54:54;94696.19;;;6.96;100.00
20077;BME280;12348;42.710;23.378;2022-12-15T10:57:23;94684.22;;;7.23;100.00
20077;BME280;12348;42.710;23.378;2022-12-15T10:59:53;94697.97;;;7.45;100.00
20077;BME280;12348;42.710;23.378;2022-12-15T11:02:28;94693.19;;;7.42;100.00
20077;BME280;12348;42.710;23.378;2022-12-15T11:04:59;94701.53;;;6.96;100.00
20077;BME280;12348;42.710;23.378;2022-12-15T11:07:32;94698.72;;;7.17;100.00
20077;BME280;12348;42.710;23.378;2022-12-15T11:10:13;94697.91;;;7.56;100.00
20077;BME280;12348;42.710;23.378;2022-12-15T11:12:40;94692.16;;;7.38;100.00
20077;BME280;12348;42.710;23.378;2022-12-15T11:15:45;94696.47;;;7.34;100.00
20077;BME280;12348;42.710;23.378;2022-12-15T11:18:25;94694.66;;;7.88;100.00
20077;BME280;12348;42.710;23.378;2022-12-15T11:20:58;94692.47;;;8.19;100.00
20077;BME280;12348;42.710;23.378;2022-12-15T11:23:32;94679.66;;;9.02;100.00
20077;BME280;12348;42.710;23.378;2022-12-15T11:26:14;94686.25;;;9.28;100.00
20077;BME280;12348;42.710;23.378;2022-12-15T11:28:49;94691.88;;;9.64;100.00
20077;BME280;12348;42.710;23.378;2022-12-15T11:31:21;94692.31;;;9.53;100.00
20077;BME280;12348;42.710;23.378;2022-12-15T11:33:51;94692.84;;;8.79;100.00
20077;BME280;12348;42.710;23.378;2022-12-15T11:36:30;94693.06;;;8.40;100.00
20077;BME280;12348;42.710;23.378;2022-12-15T11:39:07;94702.09;;;7.96;100.00
20077;BME280;12348;42.710;23.378;2022-12-15T11:41:46;94705.03;;;7.94;100.00
20077;BME280;12348;42.710;23.378;2022-12-15T11:44:23;94694.25;;;7.75;100.00
20077;BME280;12348;42.710;23.378;2022-12-15T11:47:01;94693.63;;;7.55;100.00
20077;BME280;12348;42.710;23.378;2022-12-15T11:49:55;94701.06;;;7.63;100.00
20077;BME280;12348;42.710;23.378;2022-12-15T11:52:38;94699.38;;;7.72;100.00
20077;BME280;12348;42.710;23.378;2022-12-15T11:55:16;94702.13;;;7.62;100.00
20077;BME280;12348;42.710;23.378;2022-12-15T11:58:01;94711.00;;;7.57;100.00
20077;BME280;12348;42.710;23.378;2022-12-15T12:00:36;94703.94;;;7.71;100.00
20077;BME280;12348;42.710;23.378;2022-12-15T12:03:24;94707.00;;;7.89;100.00
20077;BME280;12348;42.710;23.378;2022-12-15T12:06:05;94711.16;;;7.71;100.00
20077;BME280;12348;42.710;23.378;2022-12-15T12:09:01;94710.84;;;7.77;100.00
20077;BME280;12348;42.710;23.378;2022-12-15T12:11:34;94712.19;;;7.75;100.00
20077;BME280;12348;42.710;23.378;2022-12-15T12:14:13;94728.16;;;7.22;100.00
20077;BME280;12348;42.710;23.378;2022-12-15T12:16:48;94711.31;;;7.56;100.00
20077;BME280;12348;42.710;23.378;2022-12-15T12:19:19;94715.19;;;7.73;100.00
20077;BME280;12348;42.710;23.378;2022-12-15T12:21:50;94712.94;;;8.63;100.00
20077;BME280;12348;42.710;23.378;2022-12-15T12:24:25;94720.16;;;9.05;100.00
20077;BME280;12348;42.710;23.378;2022-12-15T12:26:57;94722.00;;;8.67;100.00
20077;BME280;12348;42.710;23.378;2022-12-15T12:29:31;94720.75;;;8.06;100.00
20077;BME280;12348;42.710;23.378;2022-12-15T12:32:04;94734.06;;;8.45;100.00
20077;BME280;12348;42.710;23.378;2022-12-15T12:34:46;94737.72;;;8.73;100.00
20077;BME280;12348;42.710;23.378;2022-12-15T12:37:20;94739.50;;;9.26;100.00
20077;BME280;12348;42.710;23.378;2022-12-15T12:39:50;94748.34;;;9.45;100.00
20077;BME280;12348;42.710;23.378;2022-12-15T12:42:20;94745.03;;;9.11;100.00
20077;BME280;12348;42.710;23.378;2022-12-15T12:44:50;94750.63;;;8.95;100.00
20077;BME280;12348;42.710;23.378;2022-12-15T12:47:21;94757.09;;;8.46;100.00
20077;BME280;12348;42.710;23.378;2022-12-15T12:49:53;94740.41;;;8.25;100.00
20077;BME280;12348;42.710;23.378;2022-12-15T12:52:23;94751.00;;;8.41;100.00
20077;BME280;12348;42.710;23.378;2022-12-15T12:54:55;94749.09;;;7.88;100.00
20077;BME280;12348;42.710;23.378;2022-12-15T12:57:33;94753.28;;;7.99;100.00
20077;BME280;12348;42.710;23.378;2022-12-15T13:00:12;94760.72;;;8.02;100.00
20077;BME280;12348;42.710;23.378;2022-12-15T13:05:37;94762.00;;;8.39;100.00
20077;BME280;12348;42.710;23.378;2022-12-15T13:14:28;94755.44;;;7.97;100.00
20077;BME280;12348;42.710;23.378;2022-12-15T13:17:02;94744.44;;;7.65;100.00
20077;BME280;12348;42.710;23.378;2022-12-15T13:22:44;94769.56;;;7.35;100.00
20077;BME280;12348;42.710;23.378;2022-12-15T13:25:42;94763.66;;;7.38;100.00
20077;BME280;12348;42.710;23.378;2022-12-15T13:28:26;94772.50;;;7.38;100.00
20077;BME280;12348;42.710;23.378;2022-12-15T13:31:37;94776.50;;;7.41;100.00
20077;BME280;12348;42.710;23.378;2022-12-15T13:34:19;94770.91;;;7.37;100.00
20077;BME280;12348;42.710;23.378;2022-12-15T13:36:49;94770.84;;;7.42;100.00
20077;BME280;12348;42.710;23.378;2022-12-15T13:39:53;94772.47;;;7.43;100.00